Time;durP1;ratioP1;P1;durP2;ratioP2;P2;SDS_P1;SDS_P2;PMS_P1;PMS_P2;Temp;Humidity;BMP_temperature;BMP_pressure;BME280_temperature;BME280_humidity;BME280_pressure;Samples;Min_cycle;Max_cycle;Signal;HPM_P1;HPM_P2
2023/08/19 00:00:50;;;;;;;5.32;2.35;;;;;;;21.41;42.71;93941.81;4990999;28;20080;-80
2023/08/19 00:03:16;;;;;;;6.30;2.25;;;;;;;21.72;41.91;93959.38;4995788;28;20031;-77
2023/08/19 00:05:41;;;;;;;7.25;2.80;;;;;;;21.81;41.66;93957.88;4990321;28;20581;-79
2023/08/19 00:08:06;;;;;;;6.28;3.08;;;;;;;21.33;42.51;93943.69;4991832;28;20025;-77
2023/08/19 00:10:32;;;;;;;9.00;2.83;;;;;;;21.54;42.15;93950.38;5001168;28;20032;-77
2023/08/19 00:12:57;;;;;;;2.88;1.88;;;;;;;21.90;41.56;93954.84;4986407;28;20049;-79
2023/08/19 00:15:23;;;;;;;7.60;2.38;;;;;;;22.12;41.05;93955.69;4995167;28;20038;-78
2023/08/19 00:17:48;;;;;;;5.18;2.80;;;;;;;21.81;41.46;93959.81;4992302;28;20309;-77
2023/08/19 00:20:14;;;;;;;7.10;2.78;;;;;;;21.99;41.38;93955.25;4992106;28;20117;-77
2023/08/19 00:22:39;;;;;;;12.05;2.92;;;;;;;21.92;41.56;93974.19;4987787;28;20404;-77
2023/08/19 00:25:05;;;;;;;4.95;2.53;;;;;;;21.85;41.72;93974.16;4990406;28;20028;-79
2023/08/19 00:27:30;;;;;;;6.00;2.65;;;;;;;21.76;41.91;93965.59;4990684;28;20031;-78
2023/08/19 00:29:56;;;;;;;3.97;2.80;;;;;;;21.91;41.88;93972.63;4988176;28;20042;-79
2023/08/19 00:32:21;;;;;;;5.95;2.53;;;;;;;22.16;41.09;93964.59;4985344;28;20027;-77
2023/08/19 00:34:47;;;;;;;8.15;2.38;;;;;;;21.64;41.99;93936.94;4981897;28;20046;-76
2023/08/19 00:37:13;;;;;;;8.75;2.28;;;;;;;21.61;42.17;93936.94;4988230;28;20047;-78
2023/08/19 00:39:38;;;;;;;6.50;2.85;;;;;;;21.55;42.21;93933.81;4990723;28;20038;-79
2023/08/19 00:42:04;;;;;;;5.57;2.97;;;;;;;21.69;41.41;93911.44;4992233;28;20561;-80
2023/08/19 00:44:33;;;;;;;4.88;2.70;;;;;;;22.00;41.29;93943.25;4986521;28;20029;-79
2023/08/19 00:47:01;;;;;;;4.03;2.55;;;;;;;21.98;41.30;93934.75;4993165;28;20042;-80
2023/08/19 00:49:27;;;;;;;6.13;2.70;;;;;;;21.99;41.44;93925.47;4989359;28;20059;-78
2023/08/19 00:51:52;;;;;;;3.22;2.47;;;;;;;22.29;40.87;93938.75;4991218;28;20156;-78
2023/08/19 00:54:18;;;;;;;11.27;2.65;;;;;;;22.48;40.59;93940.31;4991942;28;20391;-79
2023/08/19 00:56:43;;;;;;;4.53;2.40;;;;;;;22.33;40.68;93923.25;4992492;28;20022;-77
2023/08/19 00:59:09;;;;;;;6.63;2.40;;;;;;;22.67;40.32;93931.81;4997013;28;20409;-78
2023/08/19 01:01:34;;;;;;;5.57;2.83;;;;;;;22.65;40.29;93917.84;4994885;28;20053;-78
2023/08/19 01:04:00;;;;;;;7.47;2.75;;;;;;;22.72;40.01;93923.28;4992705;28;20642;-76
2023/08/19 01:06:34;;;;;;;5.60;2.08;;;;;;;22.84;39.72;93924.81;4987490;28;20126;-79
2023/08/19 01:09:30;;;;;;;4.60;3.17;;;;;;;22.90;39.45;93929.50;4996692;28;20119;-78
2023/08/19 01:12:33;;;;;;;5.82;3.75;;;;;;;22.42;40.60;93936.44;5005493;28;20034;-78
2023/08/19 01:15:16;;;;;;;4.93;2.25;;;;;;;22.45;40.57;93930.22;4991998;28;20604;-78
2023/08/19 01:17:42;;;;;;;9.57;2.80;;;;;;;22.59;40.62;93944.56;4989021;28;20027;-78
2023/08/19 01:20:11;;;;;;;5.60;2.58;;;;;;;22.54;40.68;93949.59;4984388;28;20061;-78
2023/08/19 01:22:40;;;;;;;2.65;2.17;;;;;;;22.44;40.91;93942.25;4990117;28;20049;-80
2023/08/19 01:25:07;;;;;;;4.90;2.88;;;;;;;22.17;40.98;93931.72;4993769;28;20053;-78
2023/08/19 01:27:32;;;;;;;3.95;2.75;;;;;;;22.13;40.73;93933.63;4991037;28;20676;-78
2023/08/19 01:29:58;;;;;;;4.70;3.03;;;;;;;21.58;42.12;93927.63;5010843;28;20046;-77
2023/08/19 01:32:24;;;;;;;3.33;2.70;;;;;;;21.30;43.28;93947.16;4995475;28;20548;-80
2023/08/19 01:34:50;;;;;;;7.28;2.78;;;;;;;21.55;42.93;93949.28;4983556;28;20472;-79
2023/08/19 01:37:28;;;;;;;8.98;3.10;;;;;;;21.21;43.92;93952.13;4990766;28;20051;-78
2023/08/19 01:39:55;;;;;;;6.82;2.95;;;;;;;21.37;43.93;93947.19;4989438;28;20689;-79
2023/08/19 01:42:22;;;;;;;6.70;3.25;;;;;;;21.59;43.67;93944.66;4991613;28;20042;-79
2023/08/19 01:44:48;;;;;;;4.47;2.95;;;;;;;21.60;43.20;93929.97;4989687;28;20083;-79
2023/08/19 01:47:16;;;;;;;4.43;2.63;;;;;;;21.60;43.15;93929.97;4989672;28;20057;-79
2023/08/19 01:49:44;;;;;;;4.05;2.78;;;;;;;21.70;43.06;93927.31;4988240;28;20044;-78
2023/08/19 01:52:14;;;;;;;3.80;2.80;;;;;;;21.85;42.51;93930.84;4997666;28;20146;-78
2023/08/19 01:54:40;;;;;;;6.53;3.42;;;;;;;21.73;42.60;93928.47;4975973;28;20034;-79
2023/08/19 01:57:06;;;;;;;5.20;3.15;;;;;;;21.58;43.17;93929.56;4992498;28;20048;-79
2023/08/19 01:59:32;;;;;;;7.90;3.35;;;;;;;21.60;43.22;93913.72;4983125;28;20045;-77
2023/08/19 02:01:58;;;;;;;4.53;3.05;;;;;;;21.71;42.99;93919.94;4987043;28;20046;-76
2023/08/19 02:04:24;;;;;;;4.32;3.05;;;;;;;21.87;42.53;93928.50;4985195;28;20319;-78
2023/08/19 02:06:49;;;;;;;9.20;2.80;;;;;;;21.94;42.05;93928.56;4991435;28;20127;-79
2023/08/19 02:09:15;;;;;;;12.25;3.83;;;;;;;21.75;42.19;93921.53;4994791;28;20039;-77
2023/08/19 02:11:40;;;;;;;3.05;2.75;;;;;;;21.94;42.45;93931.25;4995574;28;20022;-78
2023/08/19 02:14:05;;;;;;;3.25;2.13;;;;;;;22.06;41.66;93913.88;4993571;28;20048;-78
2023/08/19 02:16:31;;;;;;;6.75;2.95;;;;;;;21.94;42.26;93933.97;4993752;28;20034;-77
2023/08/19 02:19:00;;;;;;;6.10;3.40;;;;;;;21.68;43.43;93936.94;4995463;28;20050;-78
2023/08/19 02:21:25;;;;;;;3.22;2.33;;;;;;;21.40;43.49;93938.34;4992381;28;20541;-78
2023/08/19 02:23:51;;;;;;;9.20;3.33;;;;;;;21.57;43.09;93923.38;4988629;28;20038;-79
2023/08/19 02:26:17;;;;;;;4.05;3.28;;;;;;;21.84;42.74;93938.19;4990501;28;20018;-78
2023/08/19 02:28:42;;;;;;;3.88;3.03;;;;;;;21.90;42.57;93914.22;4996383;28;20031;-78
2023/08/19 02:31:08;;;;;;;4.95;3.38;;;;;;;21.70;42.76;93929.25;4992246;28;20042;-78
2023/08/19 02:33:33;;;;;;;6.93;3.35;;;;;;;21.74;42.97;93940.84;4991968;28;20055;-79
2023/08/19 02:35:59;;;;;;;4.10;3.08;;;;;;;21.98;42.78;93944.81;4998873;28;20528;-79
2023/08/19 02:38:24;;;;;;;3.90;2.60;;;;;;;21.75;42.71;93931.56;4997025;28;20653;-78
2023/08/19 02:40:51;;;;;;;7.10;2.97;;;;;;;21.49;42.85;93923.69;4990999;28;20573;-77
2023/08/19 02:43:17;;;;;;;8.52;3.08;;;;;;;21.62;42.86;93933.03;4993270;28;20054;-79
2023/08/19 02:45:43;;;;;;;6.00;3.00;;;;;;;21.51;43.40;93943.03;4996519;28;20281;-78
2023/08/19 02:48:08;;;;;;;5.28;3.50;;;;;;;21.28;43.48;93946.75;4999473;28;20509;-77
2023/08/19 02:50:34;;;;;;;6.10;3.58;;;;;;;21.18;43.92;93935.88;5001024;28;20363;-78
2023/08/19 02:53:00;;;;;;;11.75;4.40;;;;;;;21.05;44.44;93934.63;4993440;28;20016;-79
2023/08/19 02:55:25;;;;;;;4.70;3.40;;;;;;;20.89;44.60;93921.38;4990040;28;20026;-78
2023/08/19 02:57:50;;;;;;;5.93;3.40;;;;;;;20.36;46.26;93948.72;4993029;28;20495;-79
2023/08/19 03:00:16;;;;;;;5.50;2.80;;;;;;;20.51;46.25;93939.59;4994506;28;20061;-78
2023/08/19 03:02:47;;;;;;;5.97;3.63;;;;;;;20.76;45.41;93947.13;4993830;28;20032;-78
2023/08/19 03:05:13;;;;;;;9.63;3.85;;;;;;;20.59;45.70;93932.31;4995737;28;20026;-78
2023/08/19 03:07:39;;;;;;;13.27;3.42;;;;;;;20.71;44.92;93902.31;4988546;28;20424;-80
2023/08/19 03:10:06;;;;;;;6.50;3.70;;;;;;;21.16;44.27;93938.97;4991093;28;20038;-76
2023/08/19 03:12:31;;;;;;;5.25;4.00;;;;;;;21.42;44.32;93946.84;4992384;28;20062;-79
2023/08/19 03:14:56;;;;;;;4.53;3.60;;;;;;;21.57;43.74;93941.53;4983392;28;21081;-78
2023/08/19 03:17:22;;;;;;;5.72;3.63;;;;;;;21.60;43.51;93952.38;4992406;28;20453;-77
2023/08/19 03:19:47;;;;;;;6.85;3.58;;;;;;;21.46;43.29;93919.81;4992857;28;20075;-77
2023/08/19 03:22:13;;;;;;;6.95;3.15;;;;;;;21.81;43.37;93954.41;4993483;28;20490;-79
2023/08/19 03:24:38;;;;;;;9.23;4.63;;;;;;;21.49;43.61;93940.69;4989957;28;20214;-79
2023/08/19 03:27:04;;;;;;;9.23;3.42;;;;;;;21.72;43.38;93953.97;4988853;28;20038;-79
2023/08/19 03:29:30;;;;;;;5.90;3.38;;;;;;;21.55;43.04;93933.03;4994912;28;20026;-78
2023/08/19 03:31:57;;;;;;;10.55;3.03;;;;;;;21.61;43.03;93953.16;4989759;28;20028;-78
2023/08/19 03:34:23;;;;;;;6.40;2.90;;;;;;;21.72;43.34;93959.38;4990613;28;20038;-78
2023/08/19 03:36:48;;;;;;;4.95;3.55;;;;;;;21.74;42.97;93947.03;4997381;28;20045;-79
2023/08/19 03:39:14;;;;;;;4.65;3.45;;;;;;;21.94;42.90;93955.63;4989224;28;20394;-80
2023/08/19 03:41:39;;;;;;;5.30;3.42;;;;;;;21.84;42.90;93945.53;4986446;28;20058;-79
2023/08/19 03:44:05;;;;;;;7.63;3.50;;;;;;;21.92;42.86;93952.50;4999935;28;20382;-79
2023/08/19 03:46:30;;;;;;;18.00;3.72;;;;;;;21.91;43.18;93959.09;4988883;28;20045;-78
2023/08/19 03:48:56;;;;;;;5.68;3.67;;;;;;;21.90;43.11;93959.47;4993625;28;20167;-80
2023/08/19 03:51:21;;;;;;;4.50;3.35;;;;;;;21.86;43.20;93965.63;4994295;28;20041;-81
2023/08/19 03:53:47;;;;;;;7.45;3.53;;;;;;;21.94;43.05;93950.22;4991218;28;20025;-78
2023/08/19 03:56:12;;;;;;;8.00;3.65;;;;;;;21.85;43.06;93920.03;4990216;28;20640;-80
2023/08/19 03:58:37;;;;;;;3.63;3.05;;;;;;;21.97;42.81;93944.03;4993371;28;20034;-80
2023/08/19 04:01:12;;;;;;;7.20;3.85;;;;;;;22.13;43.01;93957.22;4997993;28;20124;-78
2023/08/19 04:03:37;;;;;;;9.27;3.42;;;;;;;21.88;42.98;93935.50;5010167;28;20056;-77
2023/08/19 04:06:03;;;;;;;7.43;3.95;;;;;;;21.95;43.17;93942.88;4994116;28;20083;-81
2023/08/19 04:08:29;;;;;;;6.97;3.63;;;;;;;22.01;42.81;93961.06;4995363;28;20507;-79
2023/08/19 04:11:02;;;;;;;8.52;3.50;;;;;;;21.79;42.90;93951.31;4993167;28;20040;-79
2023/08/19 04:13:27;;;;;;;5.63;3.20;;;;;;;21.71;43.05;93952.41;4999065;28;20048;-77
2023/08/19 04:15:53;;;;;;;6.65;3.00;;;;;;;21.76;43.23;93965.59;4988043;28;20042;-77
2023/08/19 04:18:18;;;;;;;5.20;3.42;;;;;;;21.86;43.03;93948.63;4985545;28;20053;-79
2023/08/19 04:20:43;;;;;;;6.00;3.38;;;;;;;22.05;43.04;93961.84;4992204;28;20058;-78
2023/08/19 04:23:09;;;;;;;5.35;3.95;;;;;;;22.17;42.57;93969.63;4996698;28;20428;-78
2023/08/19 04:25:34;;;;;;;3.67;3.33;;;;;;;22.09;42.54;93962.66;4995954;28;20115;-80
2023/08/19 04:28:00;;;;;;;6.30;3.53;;;;;;;22.27;42.60;93984.38;4989353;28;20026;-77
2023/08/19 04:30:25;;;;;;;5.45;3.15;;;;;;;22.24;42.50;93969.66;4992153;28;20050;-78
2023/08/19 04:32:50;;;;;;;9.10;2.90;;;;;;;22.34;42.20;93991.78;4988758;28;20701;-79
2023/08/19 04:35:16;;;;;;;5.47;3.22;;;;;;;22.38;42.18;93984.44;4991999;28;20074;-77
2023/08/19 04:37:42;;;;;;;6.05;2.95;;;;;;;22.41;41.93;93989.84;4990207;28;20748;-79
2023/08/19 04:40:09;;;;;;;4.90;3.15;;;;;;;22.36;42.14;93989.44;4992823;28;20065;-77
2023/08/19 04:42:38;;;;;;;3.53;3.15;;;;;;;22.49;41.86;94001.47;4991319;28;20042;-78
2023/08/19 04:45:09;;;;;;;7.22;3.60;;;;;;;22.53;41.21;93994.13;5000891;28;20034;-78
2023/08/19 04:47:34;;;;;;;5.93;3.03;;;;;;;22.42;41.86;93979.78;4994250;28;20390;-79
2023/08/19 04:49:59;;;;;;;5.05;3.22;;;;;;;22.59;41.58;94008.84;4977422;28;20024;-80
2023/08/19 04:52:26;;;;;;;8.00;3.38;;;;;;;22.34;41.99;93984.41;4992706;28;20042;-78
2023/08/19 04:54:52;;;;;;;7.88;4.00;;;;;;;22.56;42.23;94006.91;4992897;28;20041;-78
2023/08/19 04:57:17;;;;;;;5.40;3.20;;;;;;;22.21;42.42;93986.69;4994024;28;20042;-77
2023/08/19 04:59:43;;;;;;;6.32;3.80;;;;;;;22.41;42.27;93995.25;4990847;28;20474;-78
2023/08/19 05:02:08;;;;;;;10.35;4.13;;;;;;;22.67;42.63;94013.13;4986498;28;20022;-77
2023/08/19 05:04:33;;;;;;;6.65;3.78;;;;;;;22.78;42.04;94015.88;4995051;28;20030;-79
2023/08/19 05:06:59;;;;;;;10.02;3.13;;;;;;;22.76;41.76;94002.69;4989262;28;20595;-78
2023/08/19 05:09:24;;;;;;;6.65;3.53;;;;;;;22.78;42.54;94003.06;4994108;28;20037;-80
2023/08/19 05:11:50;;;;;;;6.75;3.53;;;;;;;22.81;42.44;93991.47;4984606;28;20079;-78
2023/08/19 05:14:15;;;;;;;6.43;3.38;;;;;;;22.65;42.69;94010.81;4991408;28;20091;-78
2023/08/19 05:16:40;;;;;;;5.45;3.65;;;;;;;22.70;42.56;94001.50;4989053;28;20456;-78
2023/08/19 05:19:17;;;;;;;10.20;3.28;;;;;;;22.57;42.84;94003.06;4998665;28;20046;-79
2023/08/19 05:21:43;;;;;;;7.22;3.90;;;;;;;22.43;43.28;94008.44;4994148;28;20573;-79
2023/08/19 05:24:12;;;;;;;8.68;3.85;;;;;;;22.23;43.82;93994.44;4985021;28;20103;-76
2023/08/19 05:26:38;;;;;;;6.20;3.30;;;;;;;22.04;44.18;94002.84;4994516;28;20027;-78
2023/08/19 05:29:04;;;;;;;5.88;3.25;;;;;;;22.06;43.95;94001.31;4991584;28;20023;-79
2023/08/19 05:31:29;;;;;;;4.70;3.80;;;;;;;21.92;44.15;93995.84;4993408;28;20452;-77
2023/08/19 05:33:55;;;;;;;10.90;3.75;;;;;;;22.41;43.71;94010.75;4990849;28;20041;-79
2023/08/19 05:36:20;;;;;;;10.85;3.42;;;;;;;22.21;43.39;93954.19;4991137;28;20039;-78
2023/08/19 05:38:46;;;;;;;7.65;3.55;;;;;;;22.59;42.73;93981.75;4995572;28;20037;-76
2023/08/19 05:41:14;;;;;;;7.13;3.53;;;;;;;22.37;42.51;94007.25;4989984;28;20485;-77
2023/08/19 05:43:39;;;;;;;8.98;3.03;;;;;;;22.48;42.24;93994.50;4998507;28;20036;-77
2023/08/19 05:46:06;;;;;;;5.10;3.20;;;;;;;22.70;41.95;94002.28;4993783;28;20734;-78
2023/08/19 05:48:32;;;;;;;5.05;2.47;;;;;;;22.82;41.41;93997.66;4997089;28;20157;-78
2023/08/19 05:50:57;;;;;;;6.25;3.35;;;;;;;22.74;42.17;93994.16;5008632;28;20038;-79
2023/08/19 05:53:23;;;;;;;5.07;3.00;;;;;;;23.01;41.23;93989.97;5004386;28;20105;-79
2023/08/19 05:55:48;;;;;;;6.43;2.72;;;;;;;22.98;40.54;93985.28;4995430;28;20618;-77
2023/08/19 05:58:15;;;;;;;7.05;3.28;;;;;;;22.86;39.71;93987.59;4996476;28;20065;-80
2023/08/19 06:00:41;;;;;;;5.00;2.58;;;;;;;22.77;40.54;93957.38;4996677;28;20137;-78
2023/08/19 06:03:07;;;;;;;7.18;2.65;;;;;;;22.64;39.63;93986.78;4998862;28;20054;-76
2023/08/19 06:05:34;;;;;;;5.40;2.33;;;;;;;22.92;39.73;93970.59;4991846;28;20949;-79
2023/08/19 06:08:00;;;;;;;15.25;3.28;;;;;;;23.01;40.00;93989.97;4998169;28;20177;-77
2023/08/19 06:10:25;;;;;;;4.53;2.88;;;;;;;22.68;40.47;93988.34;4992894;28;20086;-77
2023/08/19 06:12:50;;;;;;;4.10;2.33;;;;;;;23.02;39.51;93999.66;4998459;28;20085;-80
2023/08/19 06:15:16;;;;;;;4.18;2.10;;;;;;;23.01;39.28;94006.22;4994743;28;20506;-79
2023/08/19 06:17:41;;;;;;;5.28;3.05;;;;;;;23.20;39.42;93991.50;4996640;28;20019;-79
2023/08/19 06:20:07;;;;;;;8.27;2.42;;;;;;;22.89;39.96;94003.09;5001982;28;20614;-79
2023/08/19 06:22:33;;;;;;;6.63;2.38;;;;;;;22.99;40.85;93996.91;4997927;27;20046;-77
2023/08/19 06:24:58;;;;;;;6.95;2.97;;;;;;;22.95;40.72;94001.56;4977891;28;20073;-79
2023/08/19 06:27:24;;;;;;;3.35;2.42;;;;;;;23.25;40.08;94009.31;4998282;28;20046;-78
2023/08/19 06:29:49;;;;;;;9.43;2.83;;;;;;;23.41;39.77;94015.13;4997509;28;20018;-78
2023/08/19 06:32:15;;;;;;;3.55;2.42;;;;;;;23.47;38.79;94005.41;5000547;28;20026;-80
2023/08/19 06:34:41;;;;;;;7.22;2.22;;;;;;;23.67;37.73;94016.66;4998606;28;20039;-80
2023/08/19 06:37:10;;;;;;;3.83;2.67;;;;;;;23.37;38.04;94006.19;5001157;27;20582;-80
2023/08/19 06:39:37;;;;;;;3.67;2.05;;;;;;;23.22;38.28;94016.28;4993899;28;20154;-80
2023/08/19 06:42:04;;;;;;;6.10;2.80;;;;;;;23.35;37.08;94024.81;4993158;27;20036;-80
2023/08/19 06:44:32;;;;;;;11.43;2.38;;;;;;;23.59;37.78;94021.34;4992895;28;20034;-78
2023/08/19 06:47:01;;;;;;;4.55;2.60;;;;;;;23.29;37.99;94010.09;5001578;28;20038;-80
2023/08/19 06:49:27;;;;;;;6.47;2.65;;;;;;;23.31;37.68;94005.06;4997790;28;20034;-80
2023/08/19 06:51:53;;;;;;;8.30;3.67;;;;;;;23.08;37.65;94017.06;4988590;28;20042;-79
2023/08/19 06:54:18;;;;;;;7.10;2.60;;;;;;;23.32;37.98;94012.06;4992692;28;20046;-79
2023/08/19 06:57:00;;;;;;;4.88;2.50;;;;;;;23.19;37.08;93998.09;4992132;28;20026;-80
2023/08/19 06:59:38;;;;;;;3.53;2.72;;;;;;;23.50;37.83;94019.03;4988939;28;20937;-79
2023/08/19 07:02:06;;;;;;;3.78;2.53;;;;;;;23.60;37.41;94017.47;5001132;28;20499;-77
2023/08/19 07:04:33;;;;;;;4.15;2.25;;;;;;;23.89;36.80;94020.88;4989552;28;20031;-77
2023/08/19 07:07:00;;;;;;;3.50;2.22;;;;;;;23.93;35.90;94006.13;4988795;28;20042;-78
2023/08/19 07:09:27;;;;;;;5.47;2.47;;;;;;;23.61;36.22;94008.16;4996212;28;20080;-81
2023/08/19 07:11:53;;;;;;;3.63;3.08;;;;;;;23.66;36.29;94002.31;4985293;28;20038;-77
2023/08/19 07:14:19;;;;;;;4.53;2.80;;;;;;;23.98;35.72;93992.13;4996556;28;20030;-81
2023/08/19 07:16:48;;;;;;;3.13;2.30;;;;;;;24.10;34.79;94011.91;4986085;28;20441;-78
2023/08/19 07:19:16;;;;;;;6.30;2.10;;;;;;;24.09;35.94;93986.66;4988544;28;20042;-78
2023/08/19 07:21:42;;;;;;;3.88;2.30;;;;;;;23.54;35.42;94016.31;4992025;28;20038;-79
2023/08/19 07:24:08;;;;;;;2.85;2.22;;;;;;;23.77;34.88;94003.06;4993993;28;20040;-80
2023/08/19 07:26:34;;;;;;;4.75;2.03;;;;;;;23.45;34.78;94013.19;4997382;28;20038;-80
2023/08/19 07:29:00;;;;;;;4.63;2.03;;;;;;;23.40;34.81;94010.88;4991480;28;20053;-81
2023/08/19 07:31:26;;;;;;;3.78;2.15;;;;;;;23.21;35.14;93998.47;4985269;28;20596;-79
2023/08/19 07:33:51;;;;;;;6.47;1.75;;;;;;;23.40;35.19;94016.28;4982255;28;20042;-79
2023/08/19 07:36:17;;;;;;;3.05;1.90;;;;;;;23.29;35.03;94018.22;4978663;28;20038;-80
2023/08/19 07:38:42;;;;;;;2.45;2.10;;;;;;;23.47;35.33;94010.84;4981399;28;20028;-80
2023/08/19 07:41:08;;;;;;;4.85;2.00;;;;;;;23.68;34.73;94010.06;4984798;28;20221;-79
2023/08/19 07:43:34;;;;;;;2.67;2.05;;;;;;;23.52;34.56;94002.34;4986703;28;20493;-78
2023/08/19 07:45:59;;;;;;;4.50;1.92;;;;;;;23.86;34.73;94027.88;4981768;28;20042;-77
2023/08/19 07:48:25;;;;;;;1.92;1.75;;;;;;;23.87;34.26;94024.00;4978964;28;20451;-80
2023/08/19 07:50:50;;;;;;;6.65;2.05;;;;;;;24.11;33.70;94011.50;4979259;28;20106;-79
2023/08/19 07:53:16;;;;;;;2.03;1.80;;;;;;;24.32;34.03;94016.09;4982770;28;20026;-77
2023/08/19 07:55:42;;;;;;;2.83;2.20;;;;;;;24.35;33.43;94015.28;4977945;28;20097;-77
2023/08/19 07:58:07;;;;;;;5.00;2.05;;;;;;;24.54;33.94;94025.69;4982217;28;20344;-80
2023/08/19 08:00:33;;;;;;;3.83;1.75;;;;;;;24.57;33.50;94024.91;4987221;28;20041;-76
2023/08/19 08:02:59;;;;;;;3.85;2.13;;;;;;;24.53;34.33;94021.44;4982428;28;20322;-80
2023/08/19 08:05:24;;;;;;;9.13;1.95;;;;;;;24.47;33.81;94005.94;4995602;28;20490;-78
2023/08/19 08:07:49;;;;;;;3.53;1.90;;;;;;;24.50;34.34;94022.22;4981207;28;20571;-78
2023/08/19 08:10:15;;;;;;;3.40;1.63;;;;;;;24.33;34.36;94017.66;4983693;28;20129;-78
2023/08/19 08:12:40;;;;;;;2.25;2.05;;;;;;;24.05;34.73;94029.38;4980736;28;20389;-77
2023/08/19 08:15:08;;;;;;;3.88;2.17;;;;;;;24.47;34.70;94017.56;4983550;28;20039;-78
2023/08/19 08:17:34;;;;;;;4.53;1.80;;;;;;;24.58;34.64;94040.06;4986172;28;20036;-79
2023/08/19 08:19:59;;;;;;;2.65;1.45;;;;;;;24.15;34.98;94016.97;4992269;28;20441;-77
2023/08/19 08:22:25;;;;;;;5.55;2.13;;;;;;;24.36;34.72;94025.78;4987033;28;20069;-78
2023/08/19 08:24:51;;;;;;;4.07;2.05;;;;;;;24.51;34.83;94021.03;4988829;28;20105;-79
2023/08/19 08:27:16;;;;;;;4.47;2.00;;;;;;;23.71;35.50;94015.47;4997248;28;20525;-77
2023/08/19 08:29:41;;;;;;;6.25;2.05;;;;;;;24.07;35.72;94015.38;4995109;28;20034;-80
2023/08/19 08:32:08;;;;;;;5.97;2.80;;;;;;;24.13;35.85;94019.28;4991304;28;20103;-78
2023/08/19 08:34:33;;;;;;;2.65;1.85;;;;;;;24.36;35.27;94025.78;4995043;28;20039;-78
2023/08/19 08:36:59;;;;;;;4.82;2.35;;;;;;;24.40;36.30;94023.03;4989836;28;20054;-77
2023/08/19 08:39:24;;;;;;;4.50;2.63;;;;;;;24.26;36.78;94002.13;4986711;28;20038;-79
2023/08/19 08:41:50;;;;;;;5.47;2.83;;;;;;;24.55;36.70;94023.75;4984966;28;20030;-79
2023/08/19 08:44:16;;;;;;;7.95;3.17;;;;;;;24.52;36.62;94022.59;4995869;28;20031;-78
2023/08/19 08:46:44;;;;;;;4.13;2.55;;;;;;;24.49;36.99;94028.84;4991121;28;20143;-80
2023/08/19 08:49:11;;;;;;;2.83;2.00;;;;;;;24.60;36.23;94015.94;4990961;28;20553;-79
2023/08/19 08:51:38;;;;;;;7.78;2.55;;;;;;;24.48;36.26;94030.00;4987623;28;20032;-78
2023/08/19 08:54:05;;;;;;;2.45;2.20;;;;;;;24.37;37.84;94032.78;4990052;28;20533;-78
2023/08/19 08:56:31;;;;;;;3.28;2.40;;;;;;;24.49;36.49;93996.22;4984581;28;20018;-80
2023/08/19 08:58:56;;;;;;;5.65;2.55;;;;;;;24.61;36.93;94033.81;4986048;28;20270;-78
2023/08/19 09:01:24;;;;;;;4.88;2.78;;;;;;;24.79;37.09;94003.81;4991840;28;20034;-78
2023/08/19 09:03:55;;;;;;;4.72;2.75;;;;;;;24.55;36.67;94029.19;5001651;28;20468;-78
2023/08/19 09:06:21;;;;;;;7.57;2.42;;;;;;;24.47;36.31;94022.25;4991847;28;20042;-80
2023/08/19 09:08:52;;;;;;;3.03;2.72;;;;;;;24.68;36.49;94025.63;4989706;28;20018;-78
2023/08/19 09:11:23;;;;;;;7.15;2.08;;;;;;;24.59;36.77;94022.53;4990508;28;20037;-78
2023/08/19 09:13:59;;;;;;;6.40;1.88;;;;;;;24.39;35.67;94016.81;4990411;28;20494;-78
2023/08/19 09:16:24;;;;;;;3.83;2.00;;;;;;;24.10;35.83;94003.75;5006921;28;20217;-79
2023/08/19 09:18:51;;;;;;;4.10;1.65;;;;;;;23.84;35.57;94002.28;4994504;28;20045;-79
2023/08/19 09:21:16;;;;;;;7.50;2.03;;;;;;;23.96;35.91;94007.25;4983217;28;20034;-79
2023/08/19 09:23:42;;;;;;;7.80;2.50;;;;;;;23.95;36.01;93997.59;4975167;28;20501;-77
2023/08/19 09:26:10;;;;;;;4.63;2.28;;;;;;;24.20;35.87;94006.44;4988674;28;20031;-78
2023/08/19 09:28:36;;;;;;;8.48;2.00;;;;;;;24.61;36.31;94009.34;4986321;28;20480;-79
2023/08/19 09:31:20;;;;;;;4.50;2.03;;;;;;;24.83;35.37;94016.22;4968386;28;20172;-78
2023/08/19 09:33:47;;;;;;;3.58;1.95;;;;;;;24.90;35.11;94001.78;4993783;28;20047;-78
2023/08/19 09:36:13;;;;;;;4.63;2.17;;;;;;;24.69;34.59;94005.41;4975935;28;20073;-80
2023/08/19 09:38:38;;;;;;;4.40;1.70;;;;;;;24.85;34.58;94016.59;4972371;28;20863;-79
2023/08/19 09:41:10;;;;;;;3.35;1.80;;;;;;;24.75;34.35;94012.00;4971503;28;21228;-79
2023/08/19 09:43:41;;;;;;;3.53;1.73;;;;;;;25.02;34.35;94027.75;4981207;28;20034;-79
2023/08/19 09:46:08;;;;;;;4.13;1.52;;;;;;;25.12;36.14;93996.97;4980674;28;20571;-79
2023/08/19 09:48:35;;;;;;;2.35;1.67;;;;;;;25.46;34.61;94016.94;4976572;28;20030;-80
2023/08/19 09:51:08;;;;;;;3.85;1.83;;;;;;;25.18;34.71;94004.28;4989826;28;20053;-78
2023/08/19 09:53:36;;;;;;;5.85;2.17;;;;;;;25.11;34.81;93984.53;4985279;28;20027;-79
2023/08/19 09:56:02;;;;;;;4.47;2.17;;;;;;;25.23;34.22;94019.41;4980609;28;20397;-77
2023/08/19 09:58:28;;;;;;;3.03;2.15;;;;;;;25.43;34.91;94012.28;4988830;28;20046;-78
2023/08/19 10:00:53;;;;;;;2.88;1.50;;;;;;;25.48;34.12;94020.00;4990813;28;20554;-78
2023/08/19 10:03:19;;;;;;;2.85;2.10;;;;;;;25.50;34.07;94027.78;4987105;28;20523;-77
2023/08/19 10:05:50;;;;;;;2.83;2.33;;;;;;;25.48;34.44;93992.00;4984794;28;20405;-78
2023/08/19 10:08:21;;;;;;;5.30;1.63;;;;;;;25.86;35.17;94014.59;4980158;28;20037;-78
2023/08/19 10:10:48;;;;;;;8.40;2.13;;;;;;;25.58;33.37;94012.94;4985429;28;20537;-78
2023/08/19 10:13:16;;;;;;;3.60;1.95;;;;;;;25.69;33.10;94019.06;4978888;28;20047;-78
2023/08/19 10:15:43;;;;;;;2.08;1.70;;;;;;;25.41;34.21;94017.38;4982382;28;20077;-79
2023/08/19 10:18:19;;;;;;;2.28;1.70;;;;;;;25.01;34.23;93986.19;4986022;28;20050;-79
2023/08/19 10:20:50;;;;;;;5.85;2.05;;;;;;;25.48;34.18;94014.56;4990022;28;20032;-78
2023/08/19 10:23:17;;;;;;;4.70;1.77;;;;;;;25.45;33.72;94020.84;4986416;28;20038;-78
2023/08/19 10:25:43;;;;;;;3.03;2.05;;;;;;;25.63;35.65;94007.03;4992793;28;20112;-78
2023/08/19 10:28:13;;;;;;;3.95;1.70;;;;;;;25.68;34.01;94012.06;4985291;28;20390;-79
2023/08/19 10:30:39;;;;;;;6.03;2.22;;;;;;;25.22;33.89;93985.25;4988697;28;20121;-78
2023/08/19 10:33:29;;;;;;;3.95;1.80;;;;;;;25.59;33.83;94009.81;4982539;28;20318;-77
2023/08/19 10:36:02;;;;;;;6.18;1.83;;;;;;;25.86;34.46;93996.28;4948540;28;20597;-78
2023/08/19 10:38:47;;;;;;;3.85;2.15;;;;;;;25.57;33.39;94006.69;4995761;28;20231;-76
2023/08/19 10:41:40;;;;;;;4.50;2.13;;;;;;;25.58;32.96;93997.38;4987471;28;20137;-78
2023/08/19 10:44:08;;;;;;;5.10;2.03;;;;;;;25.66;33.65;93985.22;4967722;28;20046;-79
2023/08/19 10:46:38;;;;;;;3.88;2.05;;;;;;;25.71;32.93;93997.63;4956301;28;20135;-79
2023/08/19 10:49:13;;;;;;;8.60;1.95;;;;;;;25.62;33.35;94006.25;4954190;28;20510;-80
2023/08/19 10:51:53;;;;;;;;;;;;;;;25.69;33.61;94000.75;4957079;28;20812;-78
2023/08/19 10:54:35;;;;;;;2.30;1.88;;;;;;;25.87;33.46;94005.22;4957910;28;19924;-77
2023/08/19 10:57:22;;;;;;;5.25;1.80;;;;;;;25.89;33.59;94005.66;4972651;28;20209;-78
2023/08/19 10:59:54;;;;;;;5.25;2.13;;;;;;;25.82;33.37;94003.72;4954766;28;20039;-77
2023/08/19 11:02:20;;;;;;;4.93;2.00;;;;;;;25.52;33.11;94004.41;4956861;28;20037;-78
2023/08/19 11:04:47;;;;;;;2.85;2.08;;;;;;;25.56;33.58;94002.47;4988396;28;20465;-76
2023/08/19 11:07:13;;;;;;;4.97;1.90;;;;;;;25.74;32.98;94009.66;4980785;28;20105;-77
2023/08/19 11:09:50;;;;;;;2.90;1.88;;;;;;;25.69;33.94;94006.22;4985319;28;20050;-80
2023/08/19 11:12:18;;;;;;;3.88;1.95;;;;;;;25.69;33.81;94002.72;4998662;28;20133;-77
2023/08/19 11:14:51;;;;;;;3.67;1.90;;;;;;;26.03;33.03;94010.94;4987147;28;20350;-78
2023/08/19 11:17:18;;;;;;;5.22;2.22;;;;;;;26.08;33.67;94010.50;4988370;28;20258;-76
2023/08/19 11:19:46;;;;;;;4.45;2.20;;;;;;;26.23;33.41;93998.25;4992266;28;20138;-78
2023/08/19 11:22:15;;;;;;;5.32;2.97;;;;;;;25.94;33.73;93988.84;4993779;28;20123;-77
2023/08/19 11:24:41;;;;;;;2.50;2.30;;;;;;;26.16;33.99;94009.22;4989796;28;20050;-79
2023/08/19 11:27:07;;;;;;;5.30;2.40;;;;;;;25.85;33.44;93994.00;4991518;28;20051;-78
2023/08/19 11:29:36;;;;;;;3.75;2.03;;;;;;;26.07;33.52;93992.59;4987181;28;20461;-78
2023/08/19 11:32:02;;;;;;;4.45;2.20;;;;;;;26.13;33.25;94010.81;4997278;28;20114;-77
2023/08/19 11:34:29;;;;;;;2.22;2.03;;;;;;;26.41;33.94;94009.69;4992912;28;20043;-77